アラート の空港の天気 - METARとTAF

Alert Airport ( CYLT / YLT ) - カナダ ヌナブト準州アラート
飛行場実況気象(Metar)
観測時間06/17 15:00 EDT (06/17 19:00 UTC)
風向・風速南南西 11m/s
視程10km以上
天気現象
少しの雲 雲底高度 1220m
全天の8割程度の雲 雲底高度 2440m
全天の8割程度の雲 雲底高度 6100m
気温9℃
湿度66%
気圧1009.7hPa
METARCYLT 171900Z 20021KT 15SM FEW040 BKN080 BKN200 09/03 A2981 RMK SC1AC5CI2 ACSL DIST SE-S SLP097
過去の天気等 Google飛行場航空写真 Wunderground天気予報

過去48時間のMETAR

飛行場予報(TAF)
発表時間: 6/17 13:30 EDT (6/17 17:30 UTC)
予報対象時間: 17日14時 EDT ~ 18日2時 EDT
風向・風速南南西 10m/s 瞬間風速 15m/s
視程10km以上
少しの雲 雲底高度 1220m
全天の4割程度の雲 雲底高度 2440m
全天の8割程度の雲 雲底高度 6100m
17日19時 EDT ~ 17日21時 EDT に徐々に
風向・風速南南西 8m/s
TAF CYLT 171730Z 1718/1806 20020G30KT P6SM FEW040 SCT080 BKN200
BECMG 1723/1801 20015KT RMK NXT FCST BY 180000Z